createdAt,value
2023-02-18T00:03:42.401Z,2.93
2023-02-18T00:08:48.179Z,9.07
2023-02-18T00:13:59.189Z,11.40
2023-02-18T00:19:06.036Z,9.47
2023-02-18T00:24:12.445Z,10.90
2023-02-18T00:29:16.259Z,10.13
2023-02-18T00:34:20.117Z,7.30
2023-02-18T00:39:23.952Z,4.00
2023-02-18T00:44:28.900Z,8.53
2023-02-18T00:49:34.343Z,3.23
2023-02-18T00:59:43.771Z,5.40
2023-02-18T01:04:47.602Z,12.00
2023-02-18T01:09:51.838Z,7.30
2023-02-18T01:14:55.703Z,9.00
2023-02-18T01:20:01.712Z,11.70
2023-02-18T01:25:07.340Z,23.17
2023-02-18T01:30:15.896Z,9.80
2023-02-18T01:35:21.854Z,7.30
2023-02-18T01:40:29.153Z,5.00
2023-02-18T01:45:39.707Z,5.80
2023-02-18T01:50:52.163Z,13.77
2023-02-18T01:55:56.524Z,7.93
2023-02-18T02:01:02.579Z,11.87
2023-02-18T02:06:15.813Z,8.73
2023-02-18T02:11:33.750Z,5.90
2023-02-18T02:16:37.543Z,4.17
2023-02-18T02:22:12.764Z,7.53
2023-02-18T02:27:23.356Z,5.50
2023-02-18T02:32:45.791Z,6.33
2023-02-18T02:38:01.133Z,5.93
2023-02-18T02:43:30.353Z,13.55
2023-02-18T02:48:38.996Z,7.37
2023-02-18T02:53:45.567Z,11.30
2023-02-18T02:59:07.293Z,9.13
2023-02-18T03:04:44.600Z,10.83
2023-02-18T03:10:04.620Z,22.27
2023-02-18T03:15:27.202Z,15.13
2023-02-18T03:20:47.570Z,15.27
2023-02-18T03:25:52.500Z,20.73
2023-02-18T03:31:14.154Z,32.23
2023-02-18T03:36:22.182Z,21.37
2023-02-18T03:41:25.991Z,22.80
2023-02-18T03:46:31.307Z,14.63
2023-02-18T03:51:35.479Z,16.97
2023-02-18T03:56:39.490Z,46.33
2023-02-18T04:01:43.533Z,70.57
2023-02-18T04:06:47.459Z,36.93
2023-02-18T04:11:51.381Z,30.87
2023-02-18T04:16:55.244Z,21.87
2023-02-18T04:21:59.219Z,20.43
2023-02-18T04:27:05.143Z,17.50
2023-02-18T04:32:09.644Z,30.80
2023-02-18T04:37:13.666Z,29.47
2023-02-18T04:42:17.648Z,25.17
2023-02-18T04:47:21.648Z,21.30
2023-02-18T04:52:25.423Z,21.90
2023-02-18T04:57:29.396Z,17.73
2023-02-18T05:02:33.943Z,20.17
2023-02-18T05:07:38.044Z,13.47
2023-02-18T05:12:42.188Z,13.50
2023-02-18T05:17:46.106Z,13.07
2023-02-18T05:22:50.182Z,14.63
2023-02-18T05:27:54.212Z,12.77
2023-02-18T05:32:58.049Z,12.63
2023-02-18T05:38:02.259Z,11.77
2023-02-18T05:43:05.946Z,14.57
2023-02-18T05:48:10.191Z,13.97
2023-02-18T05:53:15.156Z,15.63
2023-02-18T05:58:20.771Z,14.23
2023-02-18T06:03:24.835Z,13.87
2023-02-18T06:08:28.844Z,15.17
2023-02-18T06:13:32.888Z,15.87
2023-02-18T06:18:36.980Z,18.73
2023-02-18T06:23:41.041Z,15.13
2023-02-18T06:28:45.060Z,14.50
2023-02-18T06:33:48.815Z,15.18
2023-02-18T06:38:52.865Z,17.15
2023-02-18T06:43:56.749Z,14.35
2023-02-18T06:49:01.071Z,15.43
2023-02-18T06:54:06.528Z,16.70
2023-02-18T06:59:10.817Z,13.48
2023-02-18T07:04:14.967Z,13.90
2023-02-18T07:09:18.774Z,16.83
2023-02-18T07:14:25.148Z,15.52
2023-02-18T07:19:29.146Z,13.47
2023-02-18T07:24:33.119Z,13.70
2023-02-18T07:29:36.902Z,13.30
2023-02-18T07:34:40.965Z,11.00
2023-02-18T07:39:46.772Z,18.30
2023-02-18T07:44:50.564Z,13.43
2023-02-18T07:49:54.637Z,14.77
2023-02-18T07:54:58.482Z,12.18
2023-02-18T08:00:02.479Z,13.35
2023-02-18T08:05:16.206Z,12.15
2023-02-18T08:10:20.252Z,19.13
2023-02-18T08:15:24.679Z,11.80
2023-02-18T08:20:30.789Z,16.48
2023-02-18T08:25:35.166Z,16.48
2023-02-18T08:30:39.093Z,18.48
2023-02-18T08:35:43.938Z,16.30
2023-02-18T08:40:48.481Z,16.73
2023-02-18T08:45:53.269Z,17.02
2023-02-18T08:50:57.270Z,12.55
2023-02-18T08:56:01.272Z,18.48
2023-02-18T09:01:08.177Z,19.70
2023-02-18T09:06:12.626Z,17.73
2023-02-18T09:11:16.966Z,18.38
2023-02-18T09:16:21.603Z,15.60
2023-02-18T09:21:25.772Z,18.67
2023-02-18T09:26:29.778Z,14.90
2023-02-18T09:31:33.935Z,19.23
2023-02-18T09:36:39.187Z,14.68
2023-02-18T09:41:45.304Z,18.55
2023-02-18T09:47:03.529Z,16.10
2023-02-18T09:57:36.833Z,16.25
2023-02-18T10:02:57.942Z,15.40
2023-02-18T10:08:10.094Z,17.92
2023-02-18T10:13:21.850Z,15.93
2023-02-18T10:18:36.954Z,13.43
2023-02-18T10:23:45.116Z,11.65
2023-02-18T10:28:49.231Z,15.10
2023-02-18T10:33:59.291Z,15.75
2023-02-18T10:39:08.534Z,13.35
2023-02-18T10:44:13.931Z,15.27
2023-02-18T10:49:43.828Z,16.38
2023-02-18T10:55:07.285Z,14.07
2023-02-18T11:00:24.959Z,17.52
2023-02-18T11:05:29.784Z,13.88
2023-02-18T11:10:36.794Z,16.08
2023-02-18T11:16:07.353Z,19.00
2023-02-18T11:21:23.178Z,15.70
2023-02-18T11:26:38.120Z,24.38
2023-02-18T11:31:48.111Z,12.63
2023-02-18T11:36:53.632Z,15.65
2023-02-18T11:42:07.898Z,17.48
2023-02-18T11:47:15.791Z,16.92
2023-02-18T11:52:21.840Z,31.13
2023-02-18T11:57:27.092Z,23.33
2023-02-18T12:02:31.174Z,23.98
2023-02-18T12:07:46.400Z,26.20
2023-02-18T12:13:03.874Z,36.25
2023-02-18T12:18:17.145Z,38.20
2023-02-18T12:23:42.944Z,36.50
2023-02-18T12:29:07.402Z,22.17
2023-02-18T12:34:52.469Z,21.60
2023-02-18T12:40:21.929Z,19.17
2023-02-18T12:46:10.684Z,35.60
2023-02-18T12:51:30.476Z,30.40
2023-02-18T12:56:59.441Z,37.00
2023-02-18T13:02:08.917Z,26.33
2023-02-18T13:07:20.427Z,28.80
2023-02-18T13:12:39.483Z,58.47
2023-02-18T13:17:45.067Z,50.07
2023-02-18T13:22:51.114Z,48.13
2023-02-18T13:28:19.994Z,50.33
2023-02-18T13:33:37.349Z,53.05
2023-02-18T13:39:05.434Z,56.78
2023-02-18T13:44:30.204Z,41.10
2023-02-18T13:49:36.904Z,32.93
2023-02-18T13:54:51.476Z,42.10
2023-02-18T14:00:03.540Z,36.33
2023-02-18T14:05:09.185Z,38.83
2023-02-18T14:10:19.342Z,55.83
2023-02-18T14:15:23.310Z,51.27
2023-02-18T14:20:38.588Z,52.53
2023-02-18T14:25:43.517Z,60.40
2023-02-18T14:30:48.182Z,49.23
2023-02-18T14:36:01.921Z,43.43
2023-02-18T14:41:35.046Z,34.40
2023-02-18T14:47:07.128Z,38.90
2023-02-18T14:52:28.102Z,40.43
2023-02-18T14:57:49.763Z,42.83
2023-02-18T15:02:56.337Z,146.17
2023-02-18T15:08:01.534Z,35.50
2023-02-18T15:13:09.647Z,46.30
2023-02-18T15:18:29.625Z,24.63
2023-02-18T15:23:38.083Z,38.50
2023-02-18T15:29:05.117Z,31.23
2023-02-18T15:39:36.204Z,36.43
2023-02-18T15:44:50.065Z,37.40
2023-02-18T15:49:58.128Z,43.60
2023-02-18T15:55:15.359Z,41.63
2023-02-18T16:00:29.539Z,44.27
2023-02-18T16:05:39.763Z,47.57
2023-02-18T16:10:50.931Z,42.07
2023-02-18T16:15:55.281Z,46.37
2023-02-18T16:21:18.897Z,56.33
2023-02-18T16:26:45.591Z,43.30
2023-02-18T16:31:49.591Z,64.68
2023-02-18T16:37:12.908Z,54.83
2023-02-18T16:42:16.758Z,37.07
2023-02-18T16:47:21.370Z,48.73
2023-02-18T16:52:25.237Z,55.80
2023-02-18T16:57:29.008Z,49.90
2023-02-18T17:02:33.035Z,56.00
2023-02-18T17:07:37.631Z,48.20
2023-02-18T17:12:43.483Z,49.20
2023-02-18T17:17:47.288Z,51.53
2023-02-18T17:22:51.332Z,45.47
2023-02-18T17:27:55.358Z,47.97
2023-02-18T17:33:03.290Z,55.57
2023-02-18T17:38:19.020Z,49.03
2023-02-18T17:43:26.111Z,43.10
2023-02-18T17:48:30.431Z,43.53
2023-02-18T17:53:35.855Z,45.83
2023-02-18T17:58:39.737Z,48.47
2023-02-18T18:03:43.836Z,48.40
2023-02-18T18:08:49.223Z,143.90
2023-02-18T18:13:53.946Z,55.27
2023-02-18T18:18:57.713Z,52.20
2023-02-18T18:24:01.911Z,44.70
2023-02-18T18:29:05.791Z,44.90
2023-02-18T18:34:10.826Z,48.60
2023-02-18T18:39:15.521Z,39.23
2023-02-18T18:44:19.557Z,41.43
2023-02-18T18:49:23.377Z,46.70
2023-02-18T18:54:27.109Z,36.77
2023-02-18T18:59:32.500Z,36.40
2023-02-18T19:04:36.447Z,36.33
2023-02-18T19:09:40.387Z,41.30
2023-02-18T19:14:45.074Z,41.77
2023-02-18T19:19:48.840Z,36.67
2023-02-18T19:24:52.704Z,37.90
2023-02-18T19:29:56.991Z,35.47
2023-02-18T19:35:00.855Z,41.90
2023-02-18T19:40:09.546Z,41.57
2023-02-18T19:45:14.678Z,47.78
2023-02-18T19:50:18.632Z,33.30
2023-02-18T19:55:23.781Z,40.20
2023-02-18T20:00:27.613Z,40.03
2023-02-18T20:05:31.595Z,37.07
2023-02-18T20:10:36.180Z,43.47
2023-02-18T20:15:41.792Z,42.37
2023-02-18T20:20:49.928Z,41.23
2023-02-18T20:25:53.886Z,47.97
2023-02-18T20:31:09.129Z,42.38
2023-02-18T20:36:15.081Z,48.60
2023-02-18T20:41:20.892Z,40.50
2023-02-18T20:46:25.453Z,48.92
2023-02-18T20:51:29.259Z,53.57
2023-02-18T20:56:33.180Z,52.75
2023-02-18T21:01:37.728Z,46.95
2023-02-18T21:06:42.816Z,54.15
2023-02-18T21:11:46.744Z,55.75
2023-02-18T21:16:50.740Z,44.42
2023-02-18T21:21:54.706Z,51.50
2023-02-18T21:26:58.819Z,50.00
2023-02-18T21:32:02.823Z,54.55
2023-02-18T21:37:06.625Z,54.80
2023-02-18T21:42:11.589Z,51.65
2023-02-18T21:47:15.665Z,53.00
2023-02-18T21:52:19.477Z,47.88
2023-02-18T21:57:24.061Z,54.70
2023-02-18T22:02:31.649Z,50.20
2023-02-18T22:07:36.258Z,84.40
2023-02-18T22:12:40.129Z,50.80
2023-02-18T22:17:44.266Z,51.72
2023-02-18T22:22:48.043Z,44.50
2023-02-18T22:27:51.914Z,44.58
2023-02-18T22:32:55.774Z,42.15
2023-02-18T22:37:59.674Z,37.10
2023-02-18T22:43:04.259Z,37.10
2023-02-18T22:48:08.253Z,37.67
2023-02-18T22:53:12.114Z,31.90
2023-02-18T22:58:15.991Z,35.63
2023-02-18T23:03:19.705Z,36.10
2023-02-18T23:08:25.520Z,30.33
2023-02-18T23:13:29.693Z,35.13
2023-02-18T23:18:36.245Z,34.28
2023-02-18T23:23:40.353Z,30.48
2023-02-18T23:28:51.130Z,27.48
2023-02-18T23:33:58.115Z,31.52
2023-02-18T23:39:09.308Z,30.02
2023-02-18T23:44:18.518Z,22.38
2023-02-18T23:49:25.479Z,31.00
2023-02-18T23:54:29.278Z,35.08
2023-02-18T23:59:34.229Z,26.83
